createdAt,value
2018-01-23T00:00:57.016Z,992.00
2018-01-23T00:01:56.937Z,992.03
2018-01-23T00:02:56.856Z,992.12
2018-01-23T00:03:56.778Z,992.12
2018-01-23T00:04:56.696Z,992.14
2018-01-23T00:05:56.616Z,992.08
2018-01-23T00:06:56.534Z,992.16
2018-01-23T00:07:56.455Z,992.07
2018-01-23T00:08:56.375Z,992.08
2018-01-23T00:09:56.297Z,992.09
2018-01-23T00:10:56.216Z,992.11
2018-01-23T00:11:56.136Z,992.09
2018-01-23T00:12:56.056Z,992.18
2018-01-23T00:13:55.977Z,992.24
2018-01-23T00:14:55.895Z,992.33
2018-01-23T00:15:55.817Z,992.28
2018-01-23T00:16:55.735Z,992.28
2018-01-23T00:17:55.655Z,992.26
2018-01-23T00:18:55.574Z,992.30
2018-01-23T00:19:55.494Z,992.37
2018-01-23T00:20:55.414Z,992.34
2018-01-23T00:21:55.334Z,992.37
2018-01-23T00:22:55.254Z,992.29
2018-01-23T00:23:55.174Z,992.40
2018-01-23T00:24:55.094Z,992.36
2018-01-23T00:25:55.013Z,992.40
2018-01-23T00:26:54.933Z,992.41
2018-01-23T00:27:54.852Z,992.33
2018-01-23T00:28:54.773Z,992.37
2018-01-23T00:29:54.692Z,992.44
2018-01-23T00:30:54.611Z,992.44
2018-01-23T00:31:54.531Z,992.42
2018-01-23T00:32:54.451Z,992.45
2018-01-23T00:33:54.371Z,992.42
2018-01-23T00:34:54.290Z,992.49
2018-01-23T00:35:54.209Z,992.51
2018-01-23T00:36:54.129Z,992.57
2018-01-23T00:37:54.049Z,992.53
2018-01-23T00:38:53.968Z,992.58
2018-01-23T00:39:53.888Z,992.63
2018-01-23T00:40:53.807Z,992.61
2018-01-23T00:41:53.727Z,992.61
2018-01-23T00:42:53.645Z,992.61
2018-01-23T00:43:53.572Z,992.63
2018-01-23T00:44:53.485Z,992.54
2018-01-23T00:45:53.406Z,992.60
2018-01-23T00:46:53.325Z,992.58
2018-01-23T00:47:53.245Z,992.57
2018-01-23T00:48:53.164Z,992.56
2018-01-23T00:49:53.085Z,992.51
2018-01-23T00:50:53.003Z,992.55
2018-01-23T00:51:52.923Z,992.54
2018-01-23T00:52:52.843Z,992.53
2018-01-23T00:53:52.763Z,992.58
2018-01-23T00:54:52.681Z,992.54
2018-01-23T00:55:52.601Z,992.60
2018-01-23T00:56:52.522Z,992.63
2018-01-23T00:57:52.442Z,992.65
2018-01-23T00:58:52.359Z,992.71
2018-01-23T00:59:52.282Z,992.75
2018-01-23T01:00:52.201Z,992.76
2018-01-23T01:01:52.121Z,992.77
2018-01-23T01:02:52.045Z,992.86
2018-01-23T01:03:51.960Z,992.87
2018-01-23T01:04:51.883Z,992.92
2018-01-23T01:05:51.800Z,992.95
2018-01-23T01:06:51.720Z,993.04
2018-01-23T01:07:51.640Z,993.08
2018-01-23T01:08:51.560Z,993.12
2018-01-23T01:09:51.479Z,993.13
2018-01-23T01:10:51.401Z,993.13
2018-01-23T01:11:51.319Z,993.17
2018-01-23T01:12:51.239Z,993.16
2018-01-23T01:13:51.159Z,993.20
2018-01-23T01:14:51.077Z,993.24
2018-01-23T01:15:50.998Z,993.30
2018-01-23T01:16:50.922Z,993.31
2018-01-23T01:17:50.838Z,993.21
2018-01-23T01:18:50.758Z,993.33
2018-01-23T01:19:50.678Z,993.29
2018-01-23T01:20:50.598Z,993.38
2018-01-23T01:21:50.518Z,993.36
2018-01-23T01:22:50.438Z,993.45
2018-01-23T01:23:50.357Z,993.42
2018-01-23T01:24:50.277Z,993.45
2018-01-23T01:25:50.197Z,993.45
2018-01-23T01:26:50.116Z,993.50
2018-01-23T01:27:50.039Z,993.52
2018-01-23T01:28:49.956Z,993.54
2018-01-23T01:29:49.877Z,993.51
2018-01-23T01:30:49.795Z,993.55
2018-01-23T01:31:49.716Z,993.57
2018-01-23T01:32:49.635Z,993.65
2018-01-23T01:33:49.556Z,993.66
2018-01-23T01:34:49.475Z,993.72
2018-01-23T01:35:49.394Z,993.76
2018-01-23T01:36:49.315Z,993.81
2018-01-23T01:37:49.235Z,993.82
2018-01-23T01:38:49.154Z,993.81
2018-01-23T01:39:49.080Z,993.89
2018-01-23T01:40:48.993Z,993.88
2018-01-23T01:41:48.914Z,993.89
2018-01-23T01:42:48.836Z,993.92
2018-01-23T01:43:48.752Z,993.90
2018-01-23T01:44:48.672Z,993.92
2018-01-23T01:45:48.592Z,993.97
2018-01-23T01:46:48.511Z,993.98
2018-01-23T01:47:48.431Z,993.98
2018-01-23T01:48:48.350Z,994.02
2018-01-23T01:49:48.270Z,993.94
2018-01-23T01:50:48.188Z,993.89
2018-01-23T01:51:48.112Z,993.93
2018-01-23T01:52:48.029Z,993.94
2018-01-23T01:53:47.951Z,993.98
2018-01-23T01:54:47.868Z,994.03
2018-01-23T01:55:47.788Z,994.07
2018-01-23T01:56:47.708Z,994.09
2018-01-23T01:57:47.627Z,994.10
2018-01-23T01:58:47.546Z,994.09
2018-01-23T01:59:47.469Z,994.13
2018-01-23T02:00:47.386Z,994.10
2018-01-23T02:01:47.305Z,994.08
2018-01-23T02:02:47.224Z,994.14
2018-01-23T02:03:47.144Z,994.09
2018-01-23T02:04:47.064Z,994.09
2018-01-23T02:05:46.984Z,994.06
2018-01-23T02:06:46.903Z,994.07
2018-01-23T02:07:46.822Z,994.08
2018-01-23T02:08:46.742Z,994.03
2018-01-23T02:09:46.662Z,994.00
2018-01-23T02:10:46.582Z,994.00
2018-01-23T02:11:46.500Z,993.99
2018-01-23T02:12:46.421Z,993.97
2018-01-23T02:13:46.341Z,994.00
2018-01-23T02:14:46.260Z,994.01
2018-01-23T02:15:46.180Z,994.00
2018-01-23T02:16:46.100Z,993.99
2018-01-23T02:17:46.019Z,993.99
2018-01-23T02:18:45.939Z,994.04
2018-01-23T02:19:45.858Z,994.04
2018-01-23T02:20:45.778Z,994.05
2018-01-23T02:21:45.698Z,994.05
2018-01-23T02:22:45.617Z,994.01
2018-01-23T02:23:45.537Z,994.03
2018-01-23T02:24:45.458Z,994.02
2018-01-23T02:25:45.377Z,994.08
2018-01-23T02:26:45.296Z,994.09
2018-01-23T02:27:45.366Z,994.08
2018-01-23T02:28:45.136Z,994.04
2018-01-23T02:29:45.058Z,994.01
2018-01-23T02:30:44.975Z,994.02
2018-01-23T02:31:44.896Z,994.01
2018-01-23T02:32:44.817Z,994.00
2018-01-23T02:33:44.737Z,993.99
2018-01-23T02:34:44.656Z,994.02
2018-01-23T02:35:44.577Z,994.00
2018-01-23T02:36:44.497Z,994.00
2018-01-23T02:37:44.417Z,994.06
2018-01-23T02:38:44.336Z,994.11
2018-01-23T02:39:44.257Z,994.08
2018-01-23T02:40:44.177Z,994.10
2018-01-23T02:41:44.098Z,994.09
2018-01-23T02:42:44.018Z,994.12
2018-01-23T02:43:43.938Z,994.15
2018-01-23T02:44:43.858Z,994.14
2018-01-23T02:45:43.778Z,994.12
2018-01-23T02:46:43.699Z,994.15
2018-01-23T02:47:43.619Z,994.15
2018-01-23T02:48:43.539Z,994.16
2018-01-23T02:49:43.461Z,994.16
2018-01-23T02:50:43.378Z,994.15
2018-01-23T02:51:43.299Z,994.17
2018-01-23T02:52:43.220Z,994.21
2018-01-23T02:53:43.140Z,994.18
2018-01-23T02:54:43.059Z,994.21
2018-01-23T02:55:42.980Z,994.22
2018-01-23T02:56:42.900Z,994.18
2018-01-23T02:57:42.853Z,994.17
2018-01-23T02:58:42.739Z,994.18
2018-01-23T02:59:42.660Z,994.17
2018-01-23T03:00:42.582Z,994.13
2018-01-23T03:01:42.500Z,994.15
2018-01-23T03:02:42.419Z,994.15
2018-01-23T03:03:42.341Z,994.13
2018-01-23T03:04:42.260Z,994.14
2018-01-23T03:05:42.181Z,994.15
2018-01-23T03:06:42.100Z,994.16
2018-01-23T03:07:42.021Z,994.22
2018-01-23T03:08:41.942Z,994.21
2018-01-23T03:09:41.861Z,994.21
2018-01-23T03:10:41.779Z,994.21
2018-01-23T03:11:41.700Z,994.23
2018-01-23T03:12:41.621Z,994.22
2018-01-23T03:13:41.541Z,994.25
2018-01-23T03:14:41.460Z,994.23
2018-01-23T03:15:41.381Z,994.27
2018-01-23T03:16:41.301Z,994.28
2018-01-23T03:17:41.222Z,994.28
2018-01-23T03:18:41.141Z,994.32
2018-01-23T03:19:41.062Z,994.30
2018-01-23T03:20:40.982Z,994.33
2018-01-23T03:21:40.902Z,994.36
2018-01-23T03:22:40.822Z,994.36
2018-01-23T03:23:40.743Z,994.35
2018-01-23T03:24:40.662Z,994.39
2018-01-23T03:25:40.583Z,994.40
2018-01-23T03:26:40.502Z,994.40
2018-01-23T03:27:40.422Z,994.45
2018-01-23T03:28:40.342Z,994.45
2018-01-23T03:29:40.264Z,994.50
2018-01-23T03:30:40.187Z,994.52
2018-01-23T03:31:40.104Z,994.53
2018-01-23T03:32:40.023Z,994.51
2018-01-23T03:33:39.944Z,994.59
2018-01-23T03:34:39.863Z,994.57
2018-01-23T03:35:39.783Z,994.59
2018-01-23T03:36:39.704Z,994.63
2018-01-23T03:37:39.624Z,994.64
2018-01-23T03:38:39.547Z,994.67
2018-01-23T03:39:39.463Z,994.70
2018-01-23T03:40:39.384Z,994.71
2018-01-23T03:41:39.305Z,994.75
2018-01-23T03:42:39.224Z,994.77
2018-01-23T03:43:39.144Z,994.74
2018-01-23T03:44:39.064Z,994.78
2018-01-23T03:45:38.984Z,994.80
2018-01-23T03:46:38.903Z,994.77
2018-01-23T03:47:38.823Z,994.84
2018-01-23T03:48:38.744Z,994.81
2018-01-23T03:49:38.664Z,994.86
2018-01-23T03:50:38.584Z,994.84
2018-01-23T03:51:38.504Z,994.86
2018-01-23T03:52:38.424Z,994.85
2018-01-23T03:53:38.345Z,994.86
2018-01-23T03:54:38.263Z,994.90
2018-01-23T03:55:38.183Z,994.85
2018-01-23T03:56:38.103Z,994.88
2018-01-23T03:57:38.024Z,994.87
2018-01-23T03:58:37.943Z,994.87
2018-01-23T03:59:37.863Z,994.87
2018-01-23T04:00:37.786Z,994.89
2018-01-23T04:01:37.703Z,994.91
2018-01-23T04:02:37.623Z,994.91
2018-01-23T04:03:37.544Z,994.89
2018-01-23T04:04:37.464Z,994.92
2018-01-23T04:05:37.385Z,994.92
2018-01-23T04:06:37.304Z,994.95
2018-01-23T04:07:37.225Z,994.93
2018-01-23T04:08:37.144Z,994.91
2018-01-23T04:09:37.065Z,994.93
2018-01-23T04:10:36.985Z,994.89
2018-01-23T04:11:36.904Z,994.90
2018-01-23T04:12:36.825Z,994.92
2018-01-23T04:13:36.745Z,994.97
2018-01-23T04:14:36.664Z,994.98
2018-01-23T04:15:36.584Z,994.99
2018-01-23T04:16:36.504Z,994.97
2018-01-23T04:17:36.424Z,995.02
2018-01-23T04:18:36.344Z,995.02
2018-01-23T04:19:36.264Z,994.98
2018-01-23T04:20:36.184Z,995.00
2018-01-23T04:21:36.104Z,995.02
2018-01-23T04:22:36.024Z,995.02
2018-01-23T04:23:35.944Z,995.02
2018-01-23T04:24:35.863Z,995.04
2018-01-23T04:25:35.784Z,995.02
2018-01-23T04:26:35.703Z,995.05
2018-01-23T04:27:35.623Z,995.04
2018-01-23T04:28:35.544Z,995.09
2018-01-23T04:29:35.463Z,995.06
2018-01-23T04:30:35.383Z,995.10
2018-01-23T04:31:35.303Z,995.06
2018-01-23T04:32:35.223Z,995.08
2018-01-23T04:33:35.145Z,995.10
2018-01-23T04:34:35.062Z,995.09
2018-01-23T04:35:34.983Z,995.16
2018-01-23T04:36:34.903Z,995.15
2018-01-23T04:37:34.822Z,995.18
2018-01-23T04:38:34.741Z,995.19
2018-01-23T04:39:34.661Z,995.19
2018-01-23T04:40:34.583Z,995.22
2018-01-23T04:41:34.502Z,995.24
2018-01-23T04:42:34.423Z,995.27
2018-01-23T04:43:34.342Z,995.27
2018-01-23T04:44:34.262Z,995.27
2018-01-23T04:45:34.182Z,995.28
2018-01-23T04:46:34.102Z,995.30
2018-01-23T04:47:34.021Z,995.30
2018-01-23T04:48:33.941Z,995.29
2018-01-23T04:49:33.862Z,995.30
2018-01-23T04:50:33.782Z,995.33
2018-01-23T04:51:33.702Z,995.34
2018-01-23T04:52:33.622Z,995.31
2018-01-23T04:53:33.543Z,995.32
2018-01-23T04:54:33.464Z,995.36
2018-01-23T04:55:33.382Z,995.41
2018-01-23T04:56:33.302Z,995.37
2018-01-23T04:57:33.223Z,995.36
2018-01-23T04:58:33.142Z,995.37
2018-01-23T04:59:33.063Z,995.38
2018-01-23T05:00:32.983Z,995.40
2018-01-23T05:01:32.904Z,995.37
2018-01-23T05:02:32.823Z,995.40
2018-01-23T05:03:32.743Z,995.35
2018-01-23T05:04:32.663Z,995.36
2018-01-23T05:05:32.584Z,995.40
2018-01-23T05:06:32.504Z,995.35
2018-01-23T05:07:32.423Z,995.35
2018-01-23T05:08:32.344Z,995.41
2018-01-23T05:09:32.265Z,995.42
2018-01-23T05:10:32.231Z,995.42
2018-01-23T05:11:32.105Z,995.40
2018-01-23T05:12:32.026Z,995.44
2018-01-23T05:13:31.945Z,995.48
2018-01-23T05:14:31.892Z,995.47
2018-01-23T05:15:31.785Z,995.45
2018-01-23T05:16:31.706Z,995.50
2018-01-23T05:17:31.627Z,995.48
2018-01-23T05:18:31.546Z,995.53
2018-01-23T05:19:31.466Z,995.56
2018-01-23T05:20:31.387Z,995.56
2018-01-23T05:21:31.309Z,995.57
2018-01-23T05:22:31.227Z,995.63
2018-01-23T05:23:31.147Z,995.61
2018-01-23T05:24:31.068Z,995.64
2018-01-23T05:25:30.988Z,995.62
2018-01-23T05:26:30.908Z,995.65
2018-01-23T05:27:30.828Z,995.66
2018-01-23T05:28:30.749Z,995.63
2018-01-23T05:29:30.669Z,995.62
2018-01-23T05:30:30.588Z,995.68
2018-01-23T05:31:30.510Z,995.65
2018-01-23T05:32:30.430Z,995.63
2018-01-23T05:33:30.350Z,995.64
2018-01-23T05:34:30.271Z,995.61
2018-01-23T05:35:30.190Z,995.62
2018-01-23T05:36:30.111Z,995.61
2018-01-23T05:37:30.032Z,995.57
2018-01-23T05:38:29.951Z,995.57
2018-01-23T05:39:29.871Z,995.61
2018-01-23T05:40:29.792Z,995.61
2018-01-23T05:41:29.712Z,995.61
2018-01-23T05:42:29.632Z,995.58
2018-01-23T05:43:29.552Z,995.62
2018-01-23T05:44:29.472Z,995.64
2018-01-23T05:45:29.392Z,995.63
2018-01-23T05:46:29.312Z,995.68
2018-01-23T05:47:29.233Z,995.62
2018-01-23T05:48:29.154Z,995.70
2018-01-23T05:49:29.075Z,995.67
2018-01-23T05:50:28.993Z,995.68
2018-01-23T05:51:28.914Z,995.71
2018-01-23T05:52:28.834Z,995.68
2018-01-23T05:53:28.755Z,995.73
2018-01-23T05:54:28.677Z,995.74
2018-01-23T05:55:28.595Z,995.75
2018-01-23T05:56:28.515Z,995.82
2018-01-23T05:57:28.436Z,995.82
2018-01-23T05:58:28.356Z,995.83
2018-01-23T05:59:28.277Z,995.87
2018-01-23T06:00:28.203Z,995.86
2018-01-23T06:01:28.117Z,995.87
2018-01-23T06:02:28.036Z,995.85
2018-01-23T06:03:27.956Z,995.84
2018-01-23T06:04:27.877Z,995.85
2018-01-23T06:05:27.799Z,995.82
2018-01-23T06:06:27.717Z,995.83
2018-01-23T06:07:27.638Z,995.87
2018-01-23T06:08:27.558Z,995.87
2018-01-23T06:09:27.479Z,995.86
2018-01-23T06:10:27.398Z,995.87
2018-01-23T06:11:27.318Z,995.90
2018-01-23T06:12:27.243Z,995.88
2018-01-23T06:13:27.159Z,995.87
2018-01-23T06:14:27.078Z,995.88
2018-01-23T06:15:27.005Z,995.90
2018-01-23T06:16:26.919Z,995.92
2018-01-23T06:17:26.839Z,995.95
2018-01-23T06:18:26.759Z,995.96
2018-01-23T06:19:26.679Z,995.97
2018-01-23T06:20:26.599Z,996.01
2018-01-23T06:21:26.520Z,995.97
2018-01-23T06:22:26.439Z,996.00
2018-01-23T06:23:26.360Z,996.04
2018-01-23T06:24:26.279Z,996.02
2018-01-23T06:25:26.200Z,996.07
2018-01-23T06:26:26.119Z,996.08
2018-01-23T06:27:26.040Z,996.09
2018-01-23T06:28:25.960Z,996.10
2018-01-23T06:29:25.879Z,996.03
2018-01-23T06:30:25.800Z,996.11
2018-01-23T06:31:25.719Z,996.12
2018-01-23T06:32:25.677Z,996.18
2018-01-23T06:33:25.561Z,996.18
2018-01-23T06:34:25.485Z,996.18
2018-01-23T06:35:25.400Z,996.19
2018-01-23T06:36:25.322Z,996.20
2018-01-23T06:37:25.241Z,996.23
2018-01-23T06:38:25.159Z,996.25
2018-01-23T06:39:25.079Z,996.26
2018-01-23T06:40:24.999Z,996.33
2018-01-23T06:41:24.920Z,996.28
2018-01-23T06:42:24.839Z,996.33
2018-01-23T06:43:24.761Z,996.40
2018-01-23T06:44:24.681Z,996.33
2018-01-23T06:45:24.601Z,996.38
2018-01-23T06:46:24.518Z,996.39
2018-01-23T06:47:24.439Z,996.41
2018-01-23T06:48:24.360Z,996.36
2018-01-23T06:49:24.280Z,996.42
2018-01-23T06:50:24.205Z,996.42
2018-01-23T06:51:24.119Z,996.43
2018-01-23T06:52:24.040Z,996.46
2018-01-23T06:53:23.960Z,996.48
2018-01-23T06:54:23.881Z,996.51
2018-01-23T06:55:23.803Z,996.51
2018-01-23T06:56:23.720Z,996.50
2018-01-23T06:57:23.641Z,996.53
2018-01-23T06:58:23.560Z,996.51
2018-01-23T06:59:23.481Z,996.55
2018-01-23T07:00:23.401Z,996.58
2018-01-23T07:01:23.322Z,996.59
2018-01-23T07:02:23.247Z,996.61
2018-01-23T07:03:23.162Z,996.55
2018-01-23T07:04:23.082Z,996.63
2018-01-23T07:05:23.003Z,996.62
2018-01-23T07:06:22.922Z,996.64
2018-01-23T07:07:22.847Z,996.62
2018-01-23T07:08:22.796Z,996.67
2018-01-23T07:09:22.690Z,996.68
2018-01-23T07:10:22.603Z,996.70
2018-01-23T07:11:22.525Z,996.74
2018-01-23T07:12:22.444Z,996.76
2018-01-23T07:13:22.365Z,996.76
2018-01-23T07:14:22.290Z,996.79
2018-01-23T07:15:22.205Z,996.77
2018-01-23T07:16:22.125Z,996.82
2018-01-23T07:17:22.045Z,996.81
2018-01-23T07:18:21.965Z,996.81
2018-01-23T07:19:21.885Z,996.81
2018-01-23T07:20:21.806Z,996.88
2018-01-23T07:21:21.726Z,996.89
2018-01-23T07:22:21.646Z,996.84
2018-01-23T07:23:21.567Z,996.87
2018-01-23T07:24:21.502Z,996.92
2018-01-23T07:25:21.411Z,996.95
2018-01-23T07:26:21.331Z,996.97
2018-01-23T07:27:21.248Z,996.98
2018-01-23T07:28:21.170Z,996.99
2018-01-23T07:29:21.095Z,996.99
2018-01-23T07:30:21.011Z,997.02
2018-01-23T07:31:20.930Z,997.06
2018-01-23T07:32:20.853Z,997.10
2018-01-23T07:33:20.771Z,997.06
2018-01-23T07:34:20.690Z,997.13
2018-01-23T07:35:20.611Z,997.10
2018-01-23T07:36:20.531Z,997.14
2018-01-23T07:37:20.452Z,997.13
2018-01-23T07:38:20.371Z,997.19
2018-01-23T07:39:20.292Z,997.19
2018-01-23T07:40:20.212Z,997.12
2018-01-23T07:41:20.133Z,997.16
2018-01-23T07:42:20.053Z,997.16
2018-01-23T07:43:19.974Z,997.15
2018-01-23T07:44:19.895Z,997.16
2018-01-23T07:45:19.816Z,997.20
2018-01-23T07:46:19.735Z,997.22
2018-01-23T07:47:19.655Z,997.19
2018-01-23T07:48:19.578Z,997.21
2018-01-23T07:49:19.499Z,997.24
2018-01-23T07:50:19.417Z,997.22
2018-01-23T07:51:19.337Z,997.20
2018-01-23T07:52:19.258Z,997.25
2018-01-23T07:53:19.199Z,997.24
2018-01-23T07:54:19.096Z,997.30
2018-01-23T07:55:19.018Z,997.27
2018-01-23T07:56:18.939Z,997.31
2018-01-23T07:57:18.860Z,997.33
2018-01-23T07:58:18.784Z,997.36
2018-01-23T07:59:18.700Z,997.34
2018-01-23T08:00:18.621Z,997.37
2018-01-23T08:01:18.542Z,997.33
2018-01-23T08:02:18.461Z,997.30
2018-01-23T08:03:18.383Z,997.37
2018-01-23T08:04:18.303Z,997.36
2018-01-23T08:05:18.223Z,997.38
2018-01-23T08:06:18.144Z,997.40
2018-01-23T08:07:18.064Z,997.40
2018-01-23T08:08:17.985Z,997.44
2018-01-23T08:09:17.907Z,997.47
2018-01-23T08:10:17.826Z,997.48
2018-01-23T08:11:17.746Z,997.52
2018-01-23T08:12:17.674Z,997.50
2018-01-23T08:13:17.589Z,997.48
2018-01-23T08:14:17.508Z,997.49
2018-01-23T08:15:17.429Z,997.52
2018-01-23T08:16:17.350Z,997.54
2018-01-23T08:17:17.270Z,997.58
2018-01-23T08:18:17.190Z,997.56
2018-01-23T08:19:17.111Z,997.56
2018-01-23T08:20:17.032Z,997.55
2018-01-23T08:21:16.953Z,997.53
2018-01-23T08:22:16.873Z,997.58
2018-01-23T08:23:16.794Z,997.60
2018-01-23T08:24:16.714Z,997.55
2018-01-23T08:25:16.637Z,997.57
2018-01-23T08:26:16.555Z,997.58
2018-01-23T08:27:16.476Z,997.58
2018-01-23T08:28:16.399Z,997.60
2018-01-23T08:29:16.316Z,997.61
2018-01-23T08:30:16.239Z,997.59
2018-01-23T08:31:16.158Z,997.59
2018-01-23T08:32:16.079Z,997.62
2018-01-23T08:33:15.999Z,997.57
2018-01-23T08:34:15.918Z,997.61
2018-01-23T08:35:15.840Z,997.59
2018-01-23T08:36:15.760Z,997.64
2018-01-23T08:37:15.682Z,997.68
2018-01-23T08:38:15.601Z,997.68
2018-01-23T08:39:15.522Z,997.68
2018-01-23T08:40:15.442Z,997.75
2018-01-23T08:41:15.364Z,997.75
2018-01-23T08:42:15.283Z,997.75
2018-01-23T08:43:15.204Z,997.71
2018-01-23T08:44:15.124Z,997.74
2018-01-23T08:45:15.045Z,997.71
2018-01-23T08:46:14.965Z,997.70
2018-01-23T08:47:14.886Z,997.70
2018-01-23T08:48:14.806Z,997.75
2018-01-23T08:49:14.726Z,997.78
2018-01-23T08:50:14.647Z,997.83
2018-01-23T08:51:14.567Z,997.82
2018-01-23T08:52:14.489Z,997.82
2018-01-23T08:53:14.416Z,997.85
2018-01-23T08:54:14.329Z,997.85
2018-01-23T08:55:14.250Z,997.86
2018-01-23T08:56:14.170Z,997.87
2018-01-23T08:57:14.092Z,997.85
2018-01-23T08:58:14.012Z,997.84
2018-01-23T08:59:13.933Z,997.86
2018-01-23T09:00:13.854Z,997.91
2018-01-23T09:01:13.775Z,997.87
2018-01-23T09:02:13.694Z,997.92
2018-01-23T09:03:13.616Z,997.96
2018-01-23T09:04:13.538Z,997.97
2018-01-23T09:05:13.457Z,998.00
2018-01-23T09:06:13.377Z,997.96
2018-01-23T09:07:13.298Z,998.01
2018-01-23T09:08:13.219Z,998.00
2018-01-23T09:09:13.141Z,997.98
2018-01-23T09:10:13.061Z,998.02
2018-01-23T09:11:12.982Z,998.07
2018-01-23T09:12:12.902Z,998.01
2018-01-23T09:13:12.824Z,998.05
2018-01-23T09:14:12.744Z,998.03
2018-01-23T09:15:12.664Z,998.07
2018-01-23T09:16:12.586Z,998.09
2018-01-23T09:17:12.506Z,998.07
2018-01-23T09:18:12.427Z,998.07
2018-01-23T09:19:12.348Z,998.05
2018-01-23T09:20:12.269Z,998.06
2018-01-23T09:21:12.190Z,998.04
2018-01-23T09:22:12.110Z,998.09
2018-01-23T09:23:12.031Z,998.08
2018-01-23T09:24:11.952Z,998.08
2018-01-23T09:25:11.872Z,998.04
2018-01-23T09:26:11.817Z,998.09
2018-01-23T09:27:11.713Z,998.13
2018-01-23T09:28:11.636Z,998.11
2018-01-23T09:29:11.556Z,998.16
2018-01-23T09:30:11.475Z,998.17
2018-01-23T09:31:11.395Z,998.17
2018-01-23T09:32:11.317Z,998.21
2018-01-23T09:33:11.238Z,998.13
2018-01-23T09:34:11.157Z,998.20
2018-01-23T09:35:11.078Z,998.18
2018-01-23T09:36:10.999Z,998.21
2018-01-23T09:37:10.920Z,998.20
2018-01-23T09:38:10.840Z,998.23
2018-01-23T09:39:10.761Z,998.24
2018-01-23T09:40:10.682Z,998.22
2018-01-23T09:41:10.603Z,998.29
2018-01-23T09:42:10.523Z,998.31
2018-01-23T09:43:10.444Z,998.27
2018-01-23T09:44:10.365Z,998.30
2018-01-23T09:45:10.287Z,998.33
2018-01-23T09:46:10.207Z,998.31
2018-01-23T09:47:10.127Z,998.30
2018-01-23T09:48:10.049Z,998.29
2018-01-23T09:49:09.969Z,998.24
2018-01-23T09:50:09.889Z,998.26
2018-01-23T09:51:09.819Z,998.36
2018-01-23T09:52:09.732Z,998.35
2018-01-23T09:53:09.654Z,998.35
2018-01-23T09:54:09.577Z,998.34
2018-01-23T09:55:09.495Z,998.32
2018-01-23T09:56:09.416Z,998.35
2018-01-23T09:57:09.338Z,998.39
2018-01-23T09:58:09.259Z,998.43
2018-01-23T09:59:09.179Z,998.40
2018-01-23T10:00:09.100Z,998.39
2018-01-23T10:01:09.021Z,998.41
2018-01-23T10:02:08.942Z,998.45
2018-01-23T10:03:08.863Z,998.45
2018-01-23T10:04:08.785Z,998.42
2018-01-23T10:05:08.706Z,998.49
2018-01-23T10:06:08.632Z,998.48
2018-01-23T10:07:08.548Z,998.52
2018-01-23T10:08:08.469Z,998.49
2018-01-23T10:09:08.391Z,998.58
2018-01-23T10:10:08.311Z,998.55
2018-01-23T10:11:08.233Z,998.55
2018-01-23T10:12:08.155Z,998.55
2018-01-23T10:13:08.132Z,998.56
2018-01-23T10:14:07.996Z,998.55
2018-01-23T10:15:07.918Z,998.58
2018-01-23T10:16:07.840Z,998.62
2018-01-23T10:17:07.761Z,998.61
2018-01-23T10:18:07.682Z,998.60
2018-01-23T10:19:07.603Z,998.55
2018-01-23T10:20:07.525Z,998.59
2018-01-23T10:21:07.447Z,998.59
2018-01-23T10:22:07.371Z,998.60
2018-01-23T10:23:07.290Z,998.53
2018-01-23T10:24:07.212Z,998.58
2018-01-23T10:25:07.134Z,998.56
2018-01-23T10:26:07.055Z,998.56
2018-01-23T10:27:06.977Z,998.55
2018-01-23T10:28:06.898Z,998.60
2018-01-23T10:29:06.820Z,998.57
2018-01-23T10:30:06.742Z,998.57
2018-01-23T10:31:06.662Z,998.54
2018-01-23T10:32:06.584Z,998.60
2018-01-23T10:33:06.507Z,998.60
2018-01-23T10:34:06.427Z,998.59
2018-01-23T10:35:06.349Z,998.60
2018-01-23T10:36:06.272Z,998.58
2018-01-23T10:37:06.194Z,998.58
2018-01-23T10:38:06.114Z,998.60
2018-01-23T10:39:06.036Z,998.58
2018-01-23T10:40:05.958Z,998.64
2018-01-23T10:41:05.880Z,998.62
2018-01-23T10:42:05.801Z,998.60
2018-01-23T10:43:05.723Z,998.63
2018-01-23T10:44:05.648Z,998.65
2018-01-23T10:45:05.567Z,998.66
2018-01-23T10:46:05.490Z,998.71
2018-01-23T10:47:05.410Z,998.63
2018-01-23T10:48:05.334Z,998.66
2018-01-23T10:49:05.255Z,998.67
2018-01-23T10:50:05.177Z,998.66
2018-01-23T10:51:05.099Z,998.71
2018-01-23T10:52:05.022Z,998.70
2018-01-23T10:53:04.944Z,998.63
2018-01-23T10:54:04.865Z,998.62
2018-01-23T10:55:04.787Z,998.59
2018-01-23T10:56:04.710Z,998.65
2018-01-23T10:57:04.633Z,998.64
2018-01-23T10:58:04.558Z,998.61
2018-01-23T10:59:04.475Z,998.53
2018-01-23T11:00:04.399Z,998.58
2018-01-23T11:01:04.322Z,998.59
2018-01-23T11:02:04.242Z,998.53
2018-01-23T11:03:04.165Z,998.54
2018-01-23T11:04:04.087Z,998.55
2018-01-23T11:05:04.012Z,998.53
2018-01-23T11:06:03.932Z,998.52
2018-01-23T11:07:03.853Z,998.49
2018-01-23T11:08:03.776Z,998.51
2018-01-23T11:09:03.700Z,998.47
2018-01-23T11:10:03.619Z,998.47
2018-01-23T11:11:03.542Z,998.44
2018-01-23T11:12:03.465Z,998.46
2018-01-23T11:13:03.387Z,998.47
2018-01-23T11:14:03.308Z,998.44
2018-01-23T11:15:03.231Z,998.43
2018-01-23T11:16:03.153Z,998.45
2018-01-23T11:17:03.077Z,998.44
2018-01-23T11:18:02.997Z,998.41
2018-01-23T11:19:02.920Z,998.42
2018-01-23T11:20:02.843Z,998.44
2018-01-23T11:21:02.765Z,998.43
2018-01-23T11:22:02.687Z,998.47
2018-01-23T11:23:02.609Z,998.49
2018-01-23T11:24:02.533Z,998.46
2018-01-23T11:25:02.455Z,998.44
2018-01-23T11:26:02.376Z,998.41
2018-01-23T11:27:02.299Z,998.40
2018-01-23T11:28:02.222Z,998.46
2018-01-23T11:29:02.145Z,998.53
2018-01-23T11:30:02.067Z,998.48
2018-01-23T11:31:01.992Z,998.49
2018-01-23T11:32:01.916Z,998.46
2018-01-23T11:33:01.836Z,998.45
2018-01-23T11:34:01.757Z,998.44
2018-01-23T11:35:01.680Z,998.47
2018-01-23T11:36:01.645Z,998.47
2018-01-23T11:37:01.526Z,998.43
2018-01-23T11:38:01.448Z,998.50
2018-01-23T11:39:01.370Z,998.44
2018-01-23T11:40:01.295Z,998.46
2018-01-23T11:41:01.219Z,998.47
2018-01-23T11:42:01.139Z,998.43
2018-01-23T11:43:01.061Z,998.42
2018-01-23T11:44:00.986Z,998.51
2018-01-23T11:45:00.907Z,998.47
2018-01-23T11:46:00.829Z,998.42
2018-01-23T11:47:00.757Z,998.48
2018-01-23T11:48:00.673Z,998.47
2018-01-23T11:49:00.597Z,998.46
2018-01-23T11:50:00.518Z,998.48
2018-01-23T11:51:00.441Z,998.46
2018-01-23T11:52:00.363Z,998.44
2018-01-23T11:53:00.286Z,998.42
2018-01-23T11:54:00.208Z,998.44
2018-01-23T11:55:00.131Z,998.44
2018-01-23T11:56:00.059Z,998.45
2018-01-23T11:56:59.982Z,998.40
2018-01-23T11:57:59.899Z,998.39
2018-01-23T11:58:59.822Z,998.35
2018-01-23T11:59:59.744Z,998.36
2018-01-23T12:00:59.668Z,998.42
2018-01-23T12:01:59.590Z,998.37
2018-01-23T12:02:59.516Z,998.37
2018-01-23T12:03:59.436Z,998.37
2018-01-23T12:04:59.358Z,998.31
2018-01-23T12:05:59.281Z,998.31
2018-01-23T12:06:59.204Z,998.32
2018-01-23T12:07:59.128Z,998.31
2018-01-23T12:08:59.049Z,998.32
2018-01-23T12:09:58.971Z,998.30
2018-01-23T12:10:58.894Z,998.32
2018-01-23T12:11:58.817Z,998.29
2018-01-23T12:12:58.740Z,998.23
2018-01-23T12:13:58.662Z,998.27
2018-01-23T12:14:58.584Z,998.23
2018-01-23T12:15:58.507Z,998.26
2018-01-23T12:16:58.430Z,998.22
2018-01-23T12:17:58.351Z,998.22
2018-01-23T12:18:58.274Z,998.26
2018-01-23T12:19:58.197Z,998.24
2018-01-23T12:20:58.119Z,998.20
2018-01-23T12:21:58.041Z,998.18
2018-01-23T12:22:57.964Z,998.19
2018-01-23T12:23:57.887Z,998.13
2018-01-23T12:24:57.810Z,998.13
2018-01-23T12:25:57.730Z,998.10
2018-01-23T12:26:57.652Z,998.08
2018-01-23T12:27:57.575Z,998.07